Time;durP1;ratioP1;P1;durP2;ratioP2;P2;SDS_P1;SDS_P2;PMS_P1;PMS_P2;Temp;Humidity;BMP_temperature;BMP_pressure;BME280_temperature;BME280_humidity;BME280_pressure;Samples;Min_cycle;Max_cycle;Signal;HPM_P1;HPM_P2
2022/07/25 00:01:25;;;;;;;;;11.00;10.50;;;;;26.74;43.64;100245.03;4995895;28;45530;-76
2022/07/25 00:03:51;;;;;;;;;10.25;8.75;;;;;26.75;43.70;100245.88;4997621;28;45547;-77
2022/07/25 00:06:16;;;;;;;;;10.00;10.00;;;;;26.70;43.55;100243.59;4991776;28;45527;-78
2022/07/25 00:08:41;;;;;;;;;10.25;10.00;;;;;26.67;44.23;100240.34;4999756;28;45433;-76
2022/07/25 00:11:07;;;;;;;;;10.75;9.50;;;;;26.50;44.20;100209.38;5006338;28;45621;-77
2022/07/25 00:13:32;;;;;;;;;10.75;10.00;;;;;26.52;43.98;100212.78;4997307;28;45442;-77
2022/07/25 00:15:58;;;;;;;;;10.25;10.25;;;;;26.52;44.24;100218.19;4995571;28;45589;-76
2022/07/25 00:18:23;;;;;;;;;13.50;10.00;;;;;26.41;44.37;100211.91;4994352;28;45497;-77
2022/07/25 00:20:49;;;;;;;;;5.25;5.25;;;;;26.51;44.16;100219.19;4992636;28;45605;-77
2022/07/25 00:23:14;;;;;;;;;11.25;10.50;;;;;26.52;44.27;100219.03;4994050;28;45507;-78
2022/07/25 00:25:39;;;;;;;;;7.25;7.25;;;;;26.39;44.56;100194.13;4996028;28;45603;-77
2022/07/25 00:28:05;;;;;;;;;10.50;10.50;;;;;26.41;44.34;100201.06;4997226;28;45536;-76
2022/07/25 00:30:30;;;;;;;;;11.50;10.50;;;;;26.34;44.93;100193.66;4997193;28;45459;-77
2022/07/25 00:32:56;;;;;;;;;11.00;10.00;;;;;26.40;45.00;100215.63;4995699;28;45436;-77
2022/07/25 00:35:21;;;;;;;;;9.00;8.00;;;;;26.37;44.51;100206.91;5001648;28;45541;-75
2022/07/25 00:37:46;;;;;;;;;10.00;10.00;;;;;26.37;44.84;100215.06;4998818;28;45684;-76
2022/07/25 00:40:12;;;;;;;;;9.25;9.25;;;;;26.37;44.70;100210.50;4989650;28;45730;-77
2022/07/25 00:42:38;;;;;;;;;9.00;9.00;;;;;26.33;44.58;100200.06;4993938;28;45559;-76
2022/07/25 00:45:04;;;;;;;;;12.25;9.75;;;;;26.31;45.00;100200.22;4994000;28;45714;-77
2022/07/25 00:47:29;;;;;;;;;9.75;9.75;;;;;26.26;45.18;100197.09;4994839;28;46057;-77
2022/07/25 00:49:54;;;;;;;;;12.25;10.50;;;;;26.15;45.50;100179.13;4995706;28;45490;-77
2022/07/25 00:52:20;;;;;;;;;9.50;9.50;;;;;26.15;45.50;100189.09;4997250;28;45474;-76
2022/07/25 00:54:46;;;;;;;;;8.25;8.25;;;;;26.16;45.11;100190.78;4994038;28;45572;-77
2022/07/25 00:57:12;;;;;;;;;9.75;8.00;;;;;26.14;45.58;100193.66;5010017;28;47345;-77
2022/07/25 00:59:38;;;;;;;;;11.75;9.75;;;;;26.15;45.70;100189.94;4997619;28;45548;-77
2022/07/25 01:02:03;;;;;;;;;11.00;10.00;;;;;26.14;45.80;100190.09;5010257;28;45535;-77
2022/07/25 01:04:29;;;;;;;;;11.75;11.00;;;;;26.14;45.86;100188.22;4997329;28;45700;-77
2022/07/25 01:06:54;;;;;;;;;9.75;9.00;;;;;26.11;45.99;100193.09;4994862;28;46031;-77
2022/07/25 01:09:20;;;;;;;;;11.50;11.50;;;;;26.12;45.45;100195.66;4990657;28;45487;-77
2022/07/25 01:11:46;;;;;;;;;9.50;9.50;;;;;26.08;45.89;100194.22;4987890;28;45425;-77
2022/07/25 01:14:11;;;;;;;;;10.00;9.75;;;;;26.10;46.35;100213.91;4994610;28;45499;-76
2022/07/25 01:16:37;;;;;;;;;12.00;10.25;;;;;26.05;46.12;100230.56;4995372;28;45410;-77
2022/07/25 01:19:03;;;;;;;;;9.75;9.75;;;;;25.97;45.54;100197.03;4995532;28;45481;-76
2022/07/25 01:21:28;;;;;;;;;11.00;9.25;;;;;26.05;45.87;100227.84;4992477;28;45463;-76
2022/07/25 01:23:54;;;;;;;;;11.75;10.75;;;;;26.06;45.79;100220.56;4993604;28;45322;-76
2022/07/25 01:26:19;;;;;;;;;8.75;8.75;;;;;26.07;45.95;100214.19;4996410;28;45963;-76
2022/07/25 01:28:44;;;;;;;;;8.00;8.00;;;;;26.06;45.80;100207.88;4999382;28;45342;-77
2022/07/25 01:31:10;;;;;;;;;9.75;9.00;;;;;26.06;46.02;100213.31;4999046;28;45387;-77
2022/07/25 01:33:35;;;;;;;;;9.25;9.25;;;;;26.02;46.37;100211.88;4996034;28;44998;-76
2022/07/25 01:36:01;;;;;;;;;10.00;9.00;;;;;26.04;45.45;100214.47;4997205;28;47572;-76
2022/07/25 01:38:26;;;;;;;;;9.50;9.50;;;;;25.96;45.45;100201.56;5001576;28;45526;-77
2022/07/25 01:40:51;;;;;;;;;6.75;6.75;;;;;26.02;45.36;100211.88;4993773;28;45485;-76
2022/07/25 01:43:17;;;;;;;;;9.50;7.50;;;;;26.02;45.27;100222.69;4994355;28;45379;-77
2022/07/25 01:45:42;;;;;;;;;11.50;9.00;;;;;25.99;45.29;100216.72;4991431;28;46810;-76
2022/07/25 01:48:08;;;;;;;;;8.50;8.00;;;;;25.96;45.37;100209.69;5004773;28;45495;-76
2022/07/25 01:50:33;;;;;;;;;6.00;6.00;;;;;25.96;45.51;100212.38;5007869;28;45435;-77
2022/07/25 01:52:58;;;;;;;;;8.75;8.75;;;;;25.94;45.33;100200.00;5003792;28;45599;-76
2022/07/25 01:55:24;;;;;;;;;10.00;9.00;;;;;25.88;45.72;100188.72;4991591;28;45909;-76
2022/07/25 01:57:49;;;;;;;;;9.25;8.75;;;;;25.87;45.76;100188.88;4995538;28;45490;-77
2022/07/25 02:00:15;;;;;;;;;8.50;8.50;;;;;25.89;45.47;100200.44;4993917;28;45390;-76
2022/07/25 02:02:42;;;;;;;;;9.50;7.25;;;;;25.86;45.64;100200.72;4995438;28;45289;-76
2022/07/25 02:05:10;;;;;;;;;9.50;7.00;;;;;25.82;45.66;100199.25;4993756;28;45349;-76
2022/07/25 02:07:35;;;;;;;;;8.25;6.00;;;;;25.80;45.82;100202.09;5000407;28;45353;-76
2022/07/25 02:10:02;;;;;;;;;11.00;9.00;;;;;25.65;45.69;100182.69;5015337;28;45396;-76
2022/07/25 02:12:28;;;;;;;;;8.50;8.50;;;;;25.75;45.90;100193.56;5001300;28;45436;-76
2022/07/25 02:14:53;;;;;;;;;9.00;8.00;;;;;25.71;46.15;100205.66;4992994;28;45525;-75
2022/07/25 02:17:18;;;;;;;;;11.00;9.25;;;;;25.62;46.24;100188.38;4996363;28;45478;-75
2022/07/25 02:19:44;;;;;;;;;7.75;7.75;;;;;25.59;46.31;100202.19;4996306;28;45451;-77
2022/07/25 02:22:09;;;;;;;;;7.75;6.50;;;;;25.46;46.26;100177.22;4992966;28;45469;-75
2022/07/25 02:24:36;;;;;;;;;8.50;8.50;;;;;25.51;46.21;100191.19;4991645;28;46143;-77
2022/07/25 02:27:03;;;;;;;;;6.00;5.50;;;;;25.47;46.62;100190.59;4995696;28;45495;-76
2022/07/25 02:29:28;;;;;;;;;10.50;9.50;;;;;25.34;46.84;100180.03;4994922;28;45344;-77
2022/07/25 02:31:55;;;;;;;;;8.50;7.50;;;;;25.39;46.47;100203.06;4996890;28;45378;-77
2022/07/25 02:34:20;;;;;;;;;8.00;7.00;;;;;25.35;46.73;100199.81;4993883;28;45460;-77
2022/07/25 02:36:46;;;;;;;;;9.50;9.25;;;;;25.30;46.93;100200.22;4995512;28;45388;-77
2022/07/25 02:39:12;;;;;;;;;8.75;8.75;;;;;25.28;47.22;100195.88;4993197;28;45554;-76
2022/07/25 02:41:37;;;;;;;;;8.00;8.00;;;;;25.20;47.14;100193.84;4994583;28;45455;-76
2022/07/25 02:44:05;;;;;;;;;8.00;6.25;;;;;25.09;47.54;100197.50;4993475;28;46086;-76
2022/07/25 02:46:31;;;;;;;;;6.00;6.00;;;;;25.01;47.24;100194.63;5007559;28;45453;-76
2022/07/25 02:48:56;;;;;;;;;8.25;6.25;;;;;24.97;47.36;100199.41;4993622;28;45467;-77
2022/07/25 02:51:21;;;;;;;;;5.00;5.00;;;;;24.90;47.19;100198.25;4993750;28;45412;-76
2022/07/25 02:53:47;;;;;;;;;8.00;7.00;;;;;24.84;46.39;100204.19;5009970;28;46307;-76
2022/07/25 02:56:12;;;;;;;;;3.75;3.75;;;;;24.60;46.43;100177.44;5003224;28;45566;-77
2022/07/25 02:58:38;;;;;;;;;4.00;3.25;;;;;24.68;46.54;100203.78;4994294;28;45272;-75
2022/07/25 03:01:03;;;;;;;;;3.50;3.50;;;;;24.56;46.54;100195.69;4994842;28;45560;-76
2022/07/25 03:03:29;;;;;;;;;3.75;3.75;;;;;24.53;46.62;100203.22;5011470;28;48016;-76
2022/07/25 03:05:54;;;;;;;;;2.75;2.75;;;;;24.39;46.33;100185.47;4993652;28;45482;-76
2022/07/25 03:08:20;;;;;;;;;3.25;3.25;;;;;24.44;46.48;100208.38;5004593;28;45375;-76
2022/07/25 03:10:45;;;;;;;;;4.00;3.50;;;;;24.38;46.67;100203.50;4999868;28;45328;-77
2022/07/25 03:13:10;;;;;;;;;2.25;2.25;;;;;24.29;46.54;100207.84;4999822;28;45500;-76
2022/07/25 03:15:36;;;;;;;;;3.00;3.00;;;;;24.24;46.16;100212.75;4992382;28;45564;-76
2022/07/25 03:18:01;;;;;;;;;4.75;3.50;;;;;24.14;46.51;100209.09;4995774;28;45365;-77
2022/07/25 03:20:26;;;;;;;;;4.00;3.00;;;;;24.10;46.13;100204.97;4993926;28;45534;-77
2022/07/25 03:22:52;;;;;;;;;2.00;2.00;;;;;24.07;46.46;100202.50;4992685;28;45610;-77
2022/07/25 03:25:18;;;;;;;;;2.75;2.75;;;;;23.99;46.19;100207.66;4991678;28;45501;-77
2022/07/25 03:27:43;;;;;;;;;1.50;1.50;;;;;23.97;46.34;100215.03;4994292;28;45525;-77
2022/07/25 03:30:09;;;;;;;;;2.75;2.75;;;;;23.91;45.97;100217.28;4990343;28;45526;-77
2022/07/25 03:32:34;;;;;;;;;3.50;3.50;;;;;23.85;46.22;100216.91;5009510;28;45463;-76
2022/07/25 03:35:00;;;;;;;;;2.00;2.00;;;;;23.85;46.05;100225.00;4994161;28;45500;-76
2022/07/25 03:37:26;;;;;;;;;1.00;1.00;;;;;23.79;46.15;100226.31;5010532;28;45493;-76
2022/07/25 03:39:51;;;;;;;;;1.75;1.75;;;;;23.74;45.77;100228.53;4993900;28;45484;-77
2022/07/25 03:42:17;;;;;;;;;3.00;1.00;;;;;23.72;46.01;100233.19;4992889;28;45416;-76
2022/07/25 03:44:42;;;;;;;;;1.00;1.00;;;;;23.69;46.08;100233.44;4994418;28;45532;-77
2022/07/25 03:47:07;;;;;;;;;2.00;2.00;;;;;23.65;45.58;100245.47;4996827;28;45435;-76
2022/07/25 03:49:33;;;;;;;;;1.75;1.75;;;;;23.57;45.81;100241.53;4996893;28;45536;-76
2022/07/25 03:51:58;;;;;;;;;0.75;0.75;;;;;23.53;45.81;100244.59;4996730;28;45324;-76
2022/07/25 03:54:24;;;;;;;;;1.00;1.00;;;;;23.52;44.81;100248.25;4996867;28;45382;-76
2022/07/25 03:56:50;;;;;;;;;1.00;1.00;;;;;23.43;43.87;100247.19;4998012;28;45449;-75
2022/07/25 03:59:18;;;;;;;;;0.25;0.25;;;;;23.38;44.52;100255.63;5000416;28;45466;-76
2022/07/25 04:01:44;;;;;;;;;1.00;0.00;;;;;23.39;44.28;100261.88;4995942;28;46073;-76
2022/07/25 04:04:10;;;;;;;;;1.00;1.00;;;;;23.37;44.42;100262.00;4996441;28;45415;-75
2022/07/25 04:06:37;;;;;;;;;4.00;1.00;;;;;23.36;44.53;100262.97;4996963;28;45790;-77
2022/07/25 04:09:03;;;;;;;;;2.00;1.00;;;;;23.28;44.50;100257.31;4995712;28;45600;-76
2022/07/25 04:11:29;;;;;;;;;1.00;1.00;;;;;23.32;44.54;100266.03;4997110;28;45488;-77
2022/07/25 04:13:57;;;;;;;;;0.75;0.75;;;;;23.27;44.87;100263.69;4993696;28;46190;-76
2022/07/25 04:16:24;;;;;;;;;1.00;1.00;;;;;23.17;45.14;100255.47;5027077;28;45510;-77
2022/07/25 04:18:51;;;;;;;;;1.00;1.00;;;;;23.20;44.96;100266.00;4995817;28;45556;-76
2022/07/25 04:21:16;;;;;;;;;0.00;0.00;;;;;23.11;45.18;100265.84;4995712;28;45421;-77
2022/07/25 04:23:42;;;;;;;;;2.00;0.75;;;;;23.15;45.00;100278.97;4996770;28;45523;-76
2022/07/25 04:26:07;;;;;;;;;0.00;0.00;;;;;23.10;45.31;100266.84;4994551;28;45562;-77
2022/07/25 04:28:33;;;;;;;;;1.00;0.00;;;;;23.09;45.58;100282.16;4997064;28;45529;-76
2022/07/25 04:30:58;;;;;;;;;0.75;0.00;;;;;22.98;45.97;100265.94;4994719;28;45352;-76
2022/07/25 04:33:24;;;;;;;;;0.50;0.50;;;;;22.98;46.09;100276.72;5012078;28;45378;-76
2022/07/25 04:35:50;;;;;;;;;1.75;1.75;;;;;22.85;46.34;100271.38;4995869;28;45415;-75
2022/07/25 04:38:15;;;;;;;;;3.50;1.25;;;;;22.84;46.53;100281.31;4996351;28;45336;-76
2022/07/25 04:40:41;;;;;;;;;1.00;0.00;;;;;22.85;46.59;100288.44;4996992;28;45598;-76
2022/07/25 04:43:07;;;;;;;;;0.00;0.00;;;;;22.79;46.89;100288.91;4996576;28;45406;-77
2022/07/25 04:45:33;;;;;;;;;2.00;2.00;;;;;22.79;46.91;100283.50;4992191;28;45395;-77
2022/07/25 04:47:59;;;;;;;;;0.00;0.00;;;;;22.82;47.73;100287.78;4996582;28;45421;-76
2022/07/25 04:50:25;;;;;;;;;1.50;1.50;;;;;22.80;48.20;100290.59;4993691;28;45538;-77
2022/07/25 04:52:50;;;;;;;;;0.25;0.25;;;;;22.44;49.41;100245.75;4995558;28;45477;-76
2022/07/25 04:55:16;;;;;;;;;1.00;1.00;;;;;22.71;49.42;100292.16;4993161;28;45334;-76
2022/07/25 04:57:41;;;;;;;;;1.00;1.00;;;;;22.67;50.37;100295.22;4995523;28;45358;-76
2022/07/25 05:00:09;;;;;;;;;1.75;0.75;;;;;22.71;50.67;100293.97;4992641;28;46282;-76
2022/07/25 05:02:34;;;;;;;;;2.75;1.00;;;;;22.74;50.27;100291.06;4998009;28;45438;-75
2022/07/25 05:05:00;;;;;;;;;0.75;0.00;;;;;22.71;50.68;100291.28;5008505;28;45446;-77
2022/07/25 05:07:26;;;;;;;;;2.50;1.00;;;;;22.45;50.94;100250.19;4994209;28;45741;-76
2022/07/25 05:09:51;;;;;;;;;2.00;1.00;;;;;22.70;50.98;100300.38;4993011;28;45479;-75
2022/07/25 05:12:17;;;;;;;;;1.00;0.00;;;;;22.69;51.04;100287.88;4992825;28;46594;-76
2022/07/25 05:14:43;;;;;;;;;1.50;1.50;;;;;22.67;51.17;100303.28;5000997;28;45467;-77
2022/07/25 05:17:08;;;;;;;;;3.00;0.00;;;;;22.70;51.20;100311.13;4994568;28;45541;-76
2022/07/25 05:19:34;;;;;;;;;0.00;0.00;;;;;22.65;51.06;100298.03;5009007;28;46317;-77
2022/07/25 05:21:59;;;;;;;;;0.75;0.75;;;;;22.73;51.12;100304.63;4995186;28;45531;-77
2022/07/25 05:24:24;;;;;;;;;0.25;0.25;;;;;22.79;51.16;100310.44;4994418;28;45558;-76
2022/07/25 05:26:50;;;;;;;;;2.50;1.00;;;;;22.78;51.29;100324.03;5011729;28;45562;-75
2022/07/25 05:29:15;;;;;;;;;0.00;0.00;;;;;22.78;51.34;100316.78;4997037;28;46130;-77
2022/07/25 05:31:41;;;;;;;;;1.00;1.00;;;;;22.80;51.38;100316.69;4996174;28;45518;-76
2022/07/25 05:34:07;;;;;;;;;1.00;1.00;;;;;22.87;51.17;100328.72;4994959;28;45591;-76
2022/07/25 05:36:32;;;;;;;;;0.50;0.50;;;;;22.88;52.07;100325.91;4996661;28;45787;-76
2022/07/25 05:38:58;;;;;;;;;0.00;0.00;;;;;22.86;51.48;100318.91;4993291;28;45506;-77
2022/07/25 05:41:24;;;;;;;;;0.00;0.00;;;;;22.92;51.54;100329.22;4988440;28;45681;-76
2022/07/25 05:43:49;;;;;;;;;0.00;0.00;;;;;23.11;51.29;100328.72;4999993;28;45463;-77
2022/07/25 05:46:14;;;;;;;;;1.50;0.75;;;;;23.31;50.73;100337.13;4986949;28;45432;-76
2022/07/25 05:48:41;;;;;;;;;0.25;0.25;;;;;23.56;50.44;100320.75;4979007;28;45460;-77
2022/07/25 05:51:07;;;;;;;;;2.75;1.00;;;;;24.55;48.36;100323.66;4994594;28;45404;-76
2022/07/25 05:53:33;;;;;;;;;0.75;0.75;;;;;25.39;46.70;100332.88;4996418;28;45325;-76
2022/07/25 05:55:59;;;;;;;;;0.50;0.25;;;;;25.43;46.06;100328.94;4990490;28;45562;-76
2022/07/25 05:58:24;;;;;;;;;1.00;1.00;;;;;25.46;45.96;100318.72;4993792;28;46060;-76
2022/07/25 06:00:50;;;;;;;;;1.00;1.00;;;;;26.16;44.33;100331.59;4995372;28;45391;-76
2022/07/25 06:03:17;;;;;;;;;0.00;0.00;;;;;26.78;43.39;100340.44;4994291;28;45625;-79
2022/07/25 06:05:43;;;;;;;;;2.50;1.00;;;;;27.33;41.87;100339.03;4994839;28;45375;-76
2022/07/25 06:08:08;;;;;;;;;1.75;1.00;;;;;27.73;41.61;100327.09;4992004;28;45487;-81
2022/07/25 06:10:34;;;;;;;;;0.00;0.00;;;;;28.37;40.05;100341.69;4994524;28;45404;-75
2022/07/25 06:12:59;;;;;;;;;1.25;1.00;;;;;28.81;38.71;100330.97;4990101;28;45354;-75
2022/07/25 06:15:24;;;;;;;;;1.00;1.00;;;;;29.22;37.78;100342.25;4995072;28;45256;-76
2022/07/25 06:17:49;;;;;;;;;3.50;1.00;;;;;29.73;37.71;100347.03;4991141;28;46109;-76
2022/07/25 06:20:15;;;;;;;;;1.00;1.00;;;;;30.29;36.21;100351.09;4994111;28;48111;-75
2022/07/25 06:22:40;;;;;;;;;1.00;1.00;;;;;30.97;35.67;100353.81;4992706;28;45574;-76
2022/07/25 06:25:06;;;;;;;;;1.50;1.50;;;;;31.41;34.64;100349.94;4993660;28;45875;-76
2022/07/25 06:27:32;;;;;;;;;0.25;0.25;;;;;31.85;33.47;100353.09;4995223;28;45714;-76
2022/07/25 06:29:57;;;;;;;;;1.25;0.25;;;;;32.22;32.57;100348.94;4992561;28;45644;-77
2022/07/25 06:32:23;;;;;;;;;0.00;0.00;;;;;32.61;32.21;100363.59;4993738;28;45361;-76
2022/07/25 06:34:48;;;;;;;;;1.50;0.75;;;;;32.94;31.55;100353.31;4993897;28;45397;-75
2022/07/25 06:37:14;;;;;;;;;1.00;1.00;;;;;33.49;31.00;100361.44;4995811;28;45973;-75
2022/07/25 06:39:40;;;;;;;;;1.00;1.00;;;;;33.95;31.07;100358.59;4991624;28;45577;-75
2022/07/25 06:42:05;;;;;;;;;2.00;2.00;;;;;34.36;30.29;100346.25;4995063;28;45487;-75
2022/07/25 06:44:32;;;;;;;;;1.50;1.25;;;;;34.77;29.47;100347.59;4993195;28;45756;-74
2022/07/25 06:46:59;;;;;;;;;1.25;1.25;;;;;35.07;29.19;100364.78;4992571;28;45527;-74
2022/07/25 06:49:24;;;;;;;;;1.75;1.75;;;;;35.56;29.34;100353.00;4989502;28;45459;-74
2022/07/25 06:51:49;;;;;;;;;2.00;2.00;;;;;36.01;28.48;100354.56;4991557;28;45440;-74
2022/07/25 06:54:17;;;;;;;;;2.00;0.00;;;;;36.36;26.99;100360.88;4991789;28;45530;-74
2022/07/25 06:56:42;;;;;;;;;1.50;1.50;;;;;36.58;27.11;100360.78;4994409;28;45429;-74
2022/07/25 06:59:08;;;;;;;;;0.25;0.25;;;;;36.77;26.47;100370.16;4993978;28;45442;-75
2022/07/25 07:01:33;;;;;;;;;1.50;0.75;;;;;36.88;26.54;100364.06;4995243;28;45414;-82
2022/07/25 07:03:58;;;;;;;;;1.00;1.00;;;;;36.95;26.50;100380.56;4993750;28;45617;-75
2022/07/25 07:06:24;;;;;;;;;2.50;1.50;;;;;37.08;26.74;100382.47;4994368;28;45525;-76
2022/07/25 07:08:49;;;;;;;;;1.50;0.25;;;;;37.11;26.38;100373.78;4993362;28;45803;-76
2022/07/25 07:11:15;;;;;;;;;2.00;0.00;;;;;37.34;25.76;100388.03;4996064;28;45534;-76
2022/07/25 07:13:41;;;;;;;;;0.00;0.00;;;;;37.51;26.25;100395.88;4995507;28;45427;-78
2022/07/25 07:16:06;;;;;;;;;2.25;1.50;;;;;37.64;25.96;100392.25;4993415;28;45448;-76
2022/07/25 07:18:32;;;;;;;;;1.75;1.75;;;;;37.69;25.88;100387.81;5000768;28;45490;-77
2022/07/25 07:20:57;;;;;;;;;1.00;1.00;;;;;37.98;25.78;100388.44;4993459;28;45472;-76
2022/07/25 07:23:22;;;;;;;;;1.00;1.00;;;;;38.26;25.06;100392.81;4991281;28;45529;-75
2022/07/25 07:25:48;;;;;;;;;0.00;0.00;;;;;38.42;24.94;100393.38;5006866;28;46192;-76
2022/07/25 07:28:14;;;;;;;;;1.00;1.00;;;;;38.46;24.81;100395.53;4994238;28;45394;-77
2022/07/25 07:30:39;;;;;;;;;0.00;0.00;;;;;38.77;24.99;100401.34;4996289;28;45481;-75
2022/07/25 07:33:05;;;;;;;;;0.00;0.00;;;;;38.95;24.51;100403.34;4992586;28;45708;-77
2022/07/25 07:35:30;;;;;;;;;2.00;1.00;;;;;39.11;24.36;100402.00;5010158;28;45987;-76
2022/07/25 07:37:56;;;;;;;;;1.00;1.00;;;;;39.21;24.76;100407.88;4997796;28;45541;-75
2022/07/25 07:40:22;;;;;;;;;0.25;0.25;;;;;39.20;23.92;100397.88;5005232;28;45530;-75
2022/07/25 07:42:49;;;;;;;;;2.00;1.00;;;;;39.21;23.71;100411.47;4993199;28;45525;-76
2022/07/25 07:45:17;;;;;;;;;4.00;1.00;;;;;39.04;23.57;100405.63;4989264;28;45638;-76
2022/07/25 07:47:44;;;;;;;;;1.00;1.00;;;;;39.13;24.23;100410.91;4993746;28;45508;-77
2022/07/25 07:50:10;;;;;;;;;0.50;0.00;;;;;39.44;23.50;100399.81;4993178;28;45392;-75
2022/07/25 07:52:35;;;;;;;;;1.00;1.00;;;;;39.76;23.99;100405.28;4988887;28;45497;-76
2022/07/25 07:57:45;;;;;;;;;1.00;1.00;;;;;39.73;23.18;100394.69;4990712;28;45495;-76
2022/07/25 08:00:12;;;;;;;;;0.75;0.75;;;;;39.79;23.17;100409.53;4990681;28;45526;-76
2022/07/25 08:02:45;;;;;;;;;1.75;1.00;;;;;39.53;23.18;100372.72;4990244;28;45507;-77
2022/07/25 08:05:10;;;;;;;;;0.50;0.50;;;;;39.96;23.09;100421.66;4990066;28;45441;-76
2022/07/25 08:07:36;;;;;;;;;1.00;1.00;;;;;40.04;23.33;100403.97;4991838;28;45755;-76
2022/07/25 08:10:02;;;;;;;;;0.75;0.75;;;;;40.37;24.10;100419.31;4991066;28;45538;-76
2022/07/25 08:12:27;;;;;;;;;1.00;0.00;;;;;40.77;22.79;100417.97;4989987;28;45489;-76
2022/07/25 08:14:52;;;;;;;;;0.50;0.50;;;;;40.82;22.77;100430.06;4990777;28;50009;-77
2022/07/25 08:17:18;;;;;;;;;0.25;0.00;;;;;40.62;23.20;100410.97;4990796;28;45469;-76
2022/07/25 08:19:43;;;;;;;;;0.00;0.00;;;;;40.72;22.37;100435.31;4991428;28;45478;-76
2022/07/25 08:22:09;;;;;;;;;0.00;0.00;;;;;40.69;23.25;100427.47;4996496;28;45699;-76
2022/07/25 08:24:34;;;;;;;;;0.25;0.25;;;;;40.59;23.07;100419.72;4990979;28;45575;-76
2022/07/25 08:26:59;;;;;;;;;1.00;0.00;;;;;40.58;22.30;100425.50;4997779;28;45525;-77
2022/07/25 08:29:25;;;;;;;;;0.00;0.00;;;;;40.52;22.97;100437.50;4995421;28;45959;-76
2022/07/25 08:31:50;;;;;;;;;0.00;0.00;;;;;40.34;22.25;100428.09;4991726;28;45508;-76
2022/07/25 08:34:16;;;;;;;;;0.25;0.25;;;;;40.39;23.00;100441.22;4992343;28;46621;-76
2022/07/25 08:36:41;;;;;;;;;0.00;0.00;;;;;40.13;22.86;100433.03;4997258;28;45463;-77
2022/07/25 08:39:06;;;;;;;;;0.00;0.00;;;;;40.19;23.14;100430.41;4995274;28;45474;-76
2022/07/25 08:41:32;;;;;;;;;1.00;1.00;;;;;40.17;23.05;100436.16;4994783;28;45680;-77
2022/07/25 08:44:00;;;;;;;;;0.00;0.00;;;;;40.31;23.06;100434.94;4996421;28;46533;-75
2022/07/25 08:46:28;;;;;;;;;0.00;0.00;;;;;40.24;23.07;100434.19;4997519;28;45652;-77
2022/07/25 08:48:55;;;;;;;;;0.00;0.00;;;;;40.11;23.10;100437.91;4995560;28;45517;-75
2022/07/25 08:51:21;;;;;;;;;1.00;0.00;;;;;39.92;23.59;100438.94;4992629;28;45764;-77
2022/07/25 08:53:47;;;;;;;;;0.00;0.00;;;;;39.54;24.11;100451.84;4987919;28;46539;-76
2022/07/25 08:56:12;;;;;;;;;0.00;0.00;;;;;39.33;24.20;100439.22;4989558;28;45512;-75
2022/07/25 08:58:38;;;;;;;;;0.00;0.00;;;;;38.99;23.92;100449.59;4992455;28;45499;-75
2022/07/25 09:01:04;;;;;;;;;0.00;0.00;;;;;39.00;24.79;100443.03;4992338;28;45502;-76
2022/07/25 09:03:29;;;;;;;;;0.00;0.00;;;;;39.35;24.25;100455.59;4991206;28;46179;-76
2022/07/25 09:05:55;;;;;;;;;0.00;0.00;;;;;39.50;23.86;100444.22;4992254;28;45601;-76
2022/07/25 09:08:20;;;;;;;;;1.00;1.00;;;;;39.34;24.93;100446.44;4991559;28;45583;-77
2022/07/25 09:10:50;;;;;;;;;0.75;0.75;;;;;39.20;24.12;100453.13;4994345;28;45399;-76
2022/07/25 09:13:17;;;;;;;;;0.00;0.00;;;;;38.82;24.50;100453.97;4994246;28;46699;-76
2022/07/25 09:15:52;;;;;;;;;0.00;0.00;;;;;38.20;24.94;100460.75;4995245;28;45602;-76
2022/07/25 09:18:23;;;;;;;;;0.00;0.00;;;;;37.21;26.29;100475.28;4990241;28;45404;-76
2022/07/25 09:20:57;;;;;;;;;1.00;0.00;;;;;36.21;27.62;100460.00;4989603;28;45768;-76
2022/07/25 09:23:36;;;;;;;;;1.00;1.00;;;;;35.44;29.37;100478.19;4990061;28;46080;-75
2022/07/25 09:26:02;;;;;;;;;0.25;0.00;;;;;34.98;30.04;100482.09;4995750;28;45524;-76
2022/07/25 09:28:28;;;;;;;;;0.00;0.00;;;;;34.75;30.15;100479.47;4997494;28;45536;-76
2022/07/25 09:31:00;;;;;;;;;1.00;1.00;;;;;34.57;30.28;100484.50;4994023;28;45542;-76
2022/07/25 09:33:28;;;;;;;;;0.25;0.25;;;;;34.32;29.99;100480.16;4993243;28;46211;-76
2022/07/25 09:35:55;;;;;;;;;0.00;0.00;;;;;34.46;30.89;100470.22;4985819;28;45454;-76
2022/07/25 09:38:21;;;;;;;;;0.00;0.00;;;;;34.28;30.05;100486.22;4996425;28;45380;-76
2022/07/25 09:40:58;;;;;;;;;0.75;0.75;;;;;33.85;30.64;100475.84;4991095;28;45515;-76
2022/07/25 09:43:41;;;;;;;;;1.00;1.00;;;;;33.37;31.49;100489.69;4992469;28;45384;-77
2022/07/25 09:46:08;;;;;;;;;1.00;1.00;;;;;32.95;32.46;100496.47;4991045;28;45681;-76
2022/07/25 09:48:35;;;;;;;;;0.00;0.00;;;;;32.66;33.62;100499.81;4999285;28;45507;-76
2022/07/25 09:51:02;;;;;;;;;0.00;0.00;;;;;32.78;32.95;100494.81;4993609;28;45671;-76
2022/07/25 09:53:28;;;;;;;;;1.00;1.00;;;;;32.71;32.76;100495.53;4994693;28;45540;-77
2022/07/25 09:55:55;;;;;;;;;0.00;0.00;;;;;32.50;32.99;100508.91;4991703;28;45525;-76
2022/07/25 09:58:22;;;;;;;;;1.00;0.00;;;;;32.27;32.92;100495.16;4994016;28;45535;-77
2022/07/25 10:00:49;;;;;;;;;2.25;1.00;;;;;32.27;33.24;100508.81;4985274;28;45515;-75
2022/07/25 10:03:41;;;;;;;;;0.00;0.00;;;;;32.20;33.06;100503.19;4993452;28;46515;-76
2022/07/25 10:06:10;;;;;;;;;1.00;0.00;;;;;31.98;33.43;100482.88;4986846;28;45487;-76
2022/07/25 10:08:38;;;;;;;;;0.00;0.00;;;;;31.94;33.39;100509.66;4992891;28;45452;-76
2022/07/25 10:11:05;;;;;;;;;0.00;0.00;;;;;31.74;34.20;100503.72;4995051;28;45460;-76
2022/07/25 10:13:33;;;;;;;;;0.50;0.50;;;;;31.91;34.50;100493.63;4994498;28;46051;-77
2022/07/25 10:15:59;;;;;;;;;2.75;1.50;;;;;32.06;33.47;100501.97;4993949;28;45535;-76
2022/07/25 10:18:27;;;;;;;;;1.25;1.25;;;;;31.91;33.86;100503.69;4989334;28;45722;-77
2022/07/25 10:21:08;;;;;;;;;0.00;0.00;;;;;31.64;33.90;100503.00;4992386;28;45429;-78
2022/07/25 10:23:33;;;;;;;;;1.00;1.00;;;;;31.21;34.34;100507.72;4990121;28;46360;-77
2022/07/25 10:26:18;;;;;;;;;1.00;1.00;;;;;30.84;35.24;100501.63;4993863;28;45458;-78
2022/07/25 10:28:49;;;;;;;;;0.00;0.00;;;;;30.70;35.36;100510.41;4993319;28;45516;-76
2022/07/25 10:31:25;;;;;;;;;1.75;0.25;;;;;30.33;36.12;100495.19;4993470;28;45331;-77
2022/07/25 10:34:01;;;;;;;;;1.00;1.00;;;;;30.26;36.44;100514.91;4993940;28;46195;-79
2022/07/25 10:36:40;;;;;;;;;0.50;0.50;;;;;30.05;37.69;100525.31;4994786;28;45348;-78
2022/07/25 10:39:08;;;;;;;;;0.00;0.00;;;;;29.78;36.83;100521.69;4995089;28;45555;-77
2022/07/25 10:41:38;;;;;;;;;0.00;0.00;;;;;29.86;37.92;100535.38;4992860;28;45541;-76
2022/07/25 10:44:09;;;;;;;;;0.25;0.25;;;;;29.92;37.63;100528.47;4992517;28;46119;-77
2022/07/25 10:46:34;;;;;;;;;0.00;0.00;;;;;29.90;37.27;100530.50;4990294;28;45440;-77
2022/07/25 10:49:03;;;;;;;;;0.75;0.75;;;;;29.82;37.13;100534.00;4995091;28;45273;-77
2022/07/25 10:51:34;;;;;;;;;0.75;0.75;;;;;29.67;37.73;100532.78;4993432;28;45547;-76
2022/07/25 10:54:15;;;;;;;;;2.25;0.50;;;;;29.41;37.89;100525.41;4990787;28;46261;-75
2022/07/25 10:56:51;;;;;;;;;2.75;2.75;;;;;29.19;38.71;100524.81;4992105;28;45544;-77
2022/07/25 10:59:28;;;;;;;;;0.00;0.00;;;;;29.10;38.72;100542.03;4991752;28;45503;-77
2022/07/25 11:01:54;;;;;;;;;1.00;1.00;;;;;28.77;39.43;100551.66;4993309;28;45519;-76
2022/07/25 11:04:19;;;;;;;;;3.00;1.00;;;;;28.55;40.28;100537.41;4994353;28;45329;-74
2022/07/25 11:06:44;;;;;;;;;2.75;1.25;;;;;28.58;40.32;100549.88;4991739;28;45389;-76
2022/07/25 11:09:33;;;;;;;;;1.00;1.00;;;;;28.68;40.05;100550.69;4992140;28;45423;-77
2022/07/25 11:11:58;;;;;;;;;1.00;1.00;;;;;29.04;39.46;100550.81;4991755;28;45388;-76
2022/07/25 11:14:36;;;;;;;;;0.00;0.00;;;;;29.56;39.44;100551.09;4990824;28;45388;-75
2022/07/25 11:17:21;;;;;;;;;4.00;2.00;;;;;29.86;38.54;100550.88;4991496;28;45553;-76
2022/07/25 11:19:58;;;;;;;;;1.00;1.00;;;;;29.85;38.35;100550.03;4997155;28;45447;-75
2022/07/25 11:22:28;;;;;;;;;1.00;1.00;;;;;30.29;38.20;100550.03;4992546;28;45365;-82
2022/07/25 11:24:55;;;;;;;;;1.75;1.00;;;;;30.82;36.81;100548.16;5006686;28;48021;-74